Schedule Details


Flight Number: CTN4467
Departure: Zurich (LSZH) at 15:05
Arrival: Cilipi (LDDU) at 17:00
Route: DEGES?N871?MADEB?N606?ELMEM?L607?GEDSO?DCT?TUTIV?DCT?GEMKA?L607?NERRA

Weather Information
LSZH 172320Z AUTO 27004KT CAVOK 19/16 Q1015 NOSIG
LDDU 172300Z 09005KT CAVOK 20/17 Q1018
Schedule Frequency

Route Map